createdAt,value
2022-07-30T00:00:37.649Z,101775.84
2022-07-30T00:03:06.215Z,101777.72
2022-07-30T00:05:34.659Z,101753.03
2022-07-30T00:08:03.088Z,101773.03
2022-07-30T00:10:31.559Z,101776.63
2022-07-30T00:13:02.350Z,101725.59
2022-07-30T00:15:34.025Z,101752.72
2022-07-30T00:18:04.005Z,101766.81
2022-07-30T00:20:33.206Z,101750.34
2022-07-30T00:23:07.401Z,101758.09
2022-07-30T00:25:38.546Z,101764.19
2022-07-30T00:28:07.102Z,101714.09
2022-07-30T00:30:35.635Z,101755.28
2022-07-30T00:33:05.819Z,101683.13
2022-07-30T00:35:36.949Z,101744.03
2022-07-30T00:38:05.497Z,101748.56
2022-07-30T00:40:34.204Z,101745.44
2022-07-30T00:43:02.661Z,101476.19
2022-07-30T00:45:31.099Z,101722.56
2022-07-30T00:48:01.463Z,101747.19
2022-07-30T00:50:31.227Z,101745.78
2022-07-30T00:53:00.499Z,101718.53
2022-07-30T00:55:28.920Z,101731.06
2022-07-30T00:57:57.292Z,101743.47
2022-07-30T01:00:26.137Z,101742.69
2022-07-30T01:02:54.766Z,101712.25
2022-07-30T01:05:23.247Z,101669.94
2022-07-30T01:07:52.919Z,101740.25
2022-07-30T01:10:21.437Z,101738.38
2022-07-30T01:12:52.687Z,101734.59
2022-07-30T01:15:21.436Z,101755.44
2022-07-30T01:17:53.150Z,101740.28
2022-07-30T01:20:28.281Z,101715.66
2022-07-30T01:23:08.385Z,101731.66
2022-07-30T01:26:00.365Z,101726.34
2022-07-30T01:28:34.393Z,101726.28
2022-07-30T01:31:04.811Z,101710.44
2022-07-30T01:33:36.616Z,101702.47
2022-07-30T01:36:07.602Z,101725.34
2022-07-30T01:38:37.843Z,101723.56
2022-07-30T01:41:09.380Z,101713.16
2022-07-30T01:43:38.915Z,101722.13
2022-07-30T01:46:08.554Z,101732.66
2022-07-30T01:48:44.908Z,101730.94
2022-07-30T01:51:15.030Z,101723.16
2022-07-30T01:53:49.366Z,101715.06
2022-07-30T01:56:25.252Z,101710.88
2022-07-30T01:58:57.139Z,101703.78
2022-07-30T02:01:27.804Z,101723.47
2022-07-30T02:04:05.641Z,101726.28
2022-07-30T02:06:40.430Z,101745.03
2022-07-30T02:09:12.664Z,101729.94
2022-07-30T02:12:03.690Z,101742.34
2022-07-30T02:14:41.023Z,101744.16
2022-07-30T02:17:18.997Z,101726.69
2022-07-30T02:19:54.556Z,101739.81
2022-07-30T02:22:26.701Z,101741.69
2022-07-30T02:24:56.998Z,101747.88
2022-07-30T02:27:32.411Z,101574.91
2022-07-30T02:30:04.599Z,101703.44
2022-07-30T02:32:39.568Z,101735.91
2022-07-30T02:35:14.788Z,101733.41
2022-07-30T02:37:44.726Z,101733.44
2022-07-30T02:40:18.056Z,101738.16
2022-07-30T02:42:51.689Z,101727.31
2022-07-30T02:45:25.941Z,101736.44
2022-07-30T02:48:00.251Z,101651.72
2022-07-30T02:50:30.026Z,101734.13
2022-07-30T02:53:01.058Z,101707.94
2022-07-30T02:55:35.506Z,101688.50
2022-07-30T02:58:08.115Z,101733.41
2022-07-30T03:00:38.069Z,101721.00
2022-07-30T03:03:08.559Z,101729.06
2022-07-30T03:05:41.195Z,101708.94
2022-07-30T03:08:13.649Z,101721.19
2022-07-30T03:10:50.169Z,101728.44
2022-07-30T03:13:21.923Z,101709.78
2022-07-30T03:15:53.325Z,101710.59
2022-07-30T03:18:23.431Z,101698.38
2022-07-30T03:20:56.373Z,101770.59
2022-07-30T03:23:26.817Z,101733.94
2022-07-30T03:26:01.839Z,101740.59
2022-07-30T03:28:34.969Z,101686.75
2022-07-30T03:31:04.753Z,101723.78
2022-07-30T03:33:38.678Z,101729.16
2022-07-30T03:36:09.929Z,101716.00
2022-07-30T03:38:38.979Z,101589.06
2022-07-30T03:41:09.218Z,101742.50
2022-07-30T03:43:40.971Z,101741.69
2022-07-30T03:46:12.812Z,101745.16
2022-07-30T03:48:45.987Z,101740.72
2022-07-30T03:51:14.758Z,101746.84
2022-07-30T03:53:44.725Z,101700.94
2022-07-30T03:56:31.799Z,101747.63
2022-07-30T03:59:09.150Z,101701.91
2022-07-30T04:01:41.137Z,101713.63
2022-07-30T04:04:17.787Z,101746.28
2022-07-30T04:06:46.233Z,101733.91
2022-07-30T04:09:16.333Z,101750.81
2022-07-30T04:11:45.313Z,101731.22
2022-07-30T04:14:19.474Z,101758.66
2022-07-30T04:16:58.390Z,101700.31
2022-07-30T04:19:33.110Z,101760.13
2022-07-30T04:22:03.370Z,101645.31
2022-07-30T04:24:33.571Z,101743.25
2022-07-30T04:27:03.939Z,101717.81
2022-07-30T04:29:34.291Z,101753.00
2022-07-30T04:32:06.186Z,101711.47
2022-07-30T04:35:02.801Z,101742.53
2022-07-30T04:38:04.272Z,101753.81
2022-07-30T04:40:33.671Z,101730.09
2022-07-30T04:43:02.156Z,101758.31
2022-07-30T04:45:32.055Z,101767.84
2022-07-30T04:48:02.497Z,101756.31
2022-07-30T04:50:37.856Z,101751.88
2022-07-30T04:53:10.003Z,101770.88
2022-07-30T04:55:46.612Z,101695.09
2022-07-30T04:58:16.755Z,101768.94
2022-07-30T05:00:47.452Z,101768.69
2022-07-30T05:03:19.200Z,101771.00
2022-07-30T05:05:57.102Z,101738.19
2022-07-30T05:08:28.199Z,101685.06
2022-07-30T05:10:58.540Z,101778.38
2022-07-30T05:13:34.284Z,101762.28
2022-07-30T05:16:08.884Z,101780.69
2022-07-30T05:18:37.321Z,101766.06
2022-07-30T05:21:06.311Z,101744.88
2022-07-30T05:23:42.111Z,101778.75
2022-07-30T05:26:51.439Z,101784.63
2022-07-30T05:29:22.045Z,101698.66
2022-07-30T05:32:05.910Z,101802.41
2022-07-30T05:34:37.224Z,101796.81
2022-07-30T05:37:06.241Z,101776.97
2022-07-30T05:40:02.956Z,101803.38
2022-07-30T05:43:02.176Z,101796.56
2022-07-30T05:45:31.070Z,101776.44
2022-07-30T05:48:00.921Z,101813.53
2022-07-30T05:50:29.592Z,101742.81
2022-07-30T05:52:58.611Z,101804.22
2022-07-30T05:55:55.736Z,101812.38
2022-07-30T05:58:42.748Z,101749.34
2022-07-30T06:01:17.448Z,101808.69
2022-07-30T06:03:47.527Z,101804.91
2022-07-30T06:06:34.927Z,101812.88
2022-07-30T06:09:03.522Z,101790.31
2022-07-30T06:11:35.055Z,101809.69
2022-07-30T06:14:05.671Z,101802.69
2022-07-30T06:16:33.988Z,101813.94
2022-07-30T06:19:03.725Z,101759.38
2022-07-30T06:22:01.813Z,101816.75
2022-07-30T06:24:33.656Z,101810.97
2022-07-30T06:27:10.911Z,101776.41
2022-07-30T06:29:40.784Z,101818.50
2022-07-30T06:32:10.501Z,101822.06
2022-07-30T06:34:40.539Z,101772.38
2022-07-30T06:37:09.171Z,101831.03
2022-07-30T06:39:56.059Z,101824.03
2022-07-30T06:42:48.174Z,101803.00
2022-07-30T06:45:42.830Z,101812.06
2022-07-30T06:48:34.119Z,101831.75
2022-07-30T06:51:07.472Z,101819.09
2022-07-30T06:53:42.683Z,101749.47
2022-07-30T06:56:14.684Z,101808.72
2022-07-30T06:58:49.267Z,101801.91
2022-07-30T07:01:36.796Z,101825.63
2022-07-30T07:04:06.131Z,101823.63
2022-07-30T07:06:37.004Z,101819.81
2022-07-30T07:09:06.019Z,101826.22
2022-07-30T07:11:42.060Z,101838.06
2022-07-30T07:14:13.706Z,101825.25
2022-07-30T07:16:42.232Z,101768.78
2022-07-30T07:19:59.469Z,101845.34
2022-07-30T07:22:23.562Z,101801.16
2022-07-30T07:24:51.977Z,101844.44
2022-07-30T07:27:23.950Z,101822.25
2022-07-30T07:30:05.092Z,101847.16
2022-07-30T07:32:36.414Z,101815.41
2022-07-30T07:35:06.622Z,101845.09
2022-07-30T07:37:38.709Z,101842.78
2022-07-30T07:40:10.015Z,101846.28
2022-07-30T07:42:42.800Z,101847.69
2022-07-30T07:45:12.590Z,101730.38
2022-07-30T07:47:52.077Z,101837.34
2022-07-30T07:50:45.028Z,101850.97
2022-07-30T07:53:22.266Z,101825.50
2022-07-30T07:55:50.950Z,101849.25
2022-07-30T07:58:25.391Z,101851.13
2022-07-30T08:00:56.064Z,101847.13
2022-07-30T08:03:34.124Z,101854.69
2022-07-30T08:06:14.680Z,101822.00
2022-07-30T08:09:10.884Z,101813.50
2022-07-30T08:12:02.629Z,101806.97
2022-07-30T08:14:56.120Z,101842.34
2022-07-30T08:17:44.890Z,101818.47
2022-07-30T08:20:33.745Z,101844.53
2022-07-30T08:23:02.715Z,101840.16
2022-07-30T08:25:32.513Z,101836.38
2022-07-30T08:28:03.197Z,101831.38
2022-07-30T08:30:32.189Z,101833.72
2022-07-30T08:33:00.764Z,101846.16
2022-07-30T08:35:29.298Z,101805.78
2022-07-30T08:37:57.692Z,101850.91
2022-07-30T08:40:28.552Z,101828.84
2022-07-30T08:43:08.796Z,101851.72
2022-07-30T08:45:39.144Z,101856.03
2022-07-30T08:48:23.444Z,101819.09
2022-07-30T08:50:52.468Z,101851.25
2022-07-30T08:53:36.529Z,101847.19
2022-07-30T08:56:07.864Z,101853.72
2022-07-30T08:58:39.198Z,101856.59
2022-07-30T09:01:08.289Z,101832.41
2022-07-30T09:03:44.146Z,101859.47
2022-07-30T09:06:13.506Z,101851.25
2022-07-30T09:08:43.431Z,101870.97
2022-07-30T09:11:14.525Z,101822.00
2022-07-30T09:13:45.557Z,101864.06
2022-07-30T09:16:23.469Z,101827.00
2022-07-30T09:18:53.983Z,101683.31
2022-07-30T09:21:25.274Z,101855.63
2022-07-30T09:24:04.410Z,101859.22
2022-07-30T09:27:00.325Z,101839.13
2022-07-30T09:29:58.689Z,101861.97
2022-07-30T09:32:50.563Z,101799.97
2022-07-30T09:35:45.764Z,101835.69
2022-07-30T09:38:46.218Z,101843.66
2022-07-30T09:41:39.531Z,101841.97
2022-07-30T09:44:24.572Z,101849.81
2022-07-30T09:46:59.687Z,101809.78
2022-07-30T09:49:34.471Z,101850.94
2022-07-30T09:52:03.131Z,101801.75
2022-07-30T09:54:51.081Z,101668.13
2022-07-30T09:57:27.641Z,101809.50
2022-07-30T10:00:19.769Z,101835.59
2022-07-30T10:03:21.536Z,101832.88
2022-07-30T10:06:20.575Z,101623.34
2022-07-30T10:08:52.117Z,101836.91
2022-07-30T10:11:24.489Z,101852.25
2022-07-30T10:14:00.299Z,101867.94
2022-07-30T10:16:30.794Z,101861.13
2022-07-30T10:19:02.007Z,101855.75
2022-07-30T10:21:51.229Z,101855.78
2022-07-30T10:24:39.167Z,101857.25
2022-07-30T10:27:26.601Z,101773.13
2022-07-30T10:30:21.746Z,101763.25
2022-07-30T10:33:00.095Z,101852.16
2022-07-30T10:35:38.040Z,101782.44
2022-07-30T10:38:13.778Z,101842.94
2022-07-30T10:40:49.941Z,101796.75
2022-07-30T10:43:56.255Z,101857.97
2022-07-30T10:46:42.347Z,101840.88
2022-07-30T10:49:19.052Z,101837.38
2022-07-30T10:51:51.638Z,101852.25
2022-07-30T10:54:41.637Z,101836.38
2022-07-30T10:57:14.743Z,101862.31
2022-07-30T11:00:15.426Z,101837.19
2022-07-30T11:03:18.675Z,101854.34
2022-07-30T11:05:50.643Z,101846.19
2022-07-30T11:08:42.627Z,101870.19
2022-07-30T11:12:01.334Z,101857.84
2022-07-30T11:15:06.583Z,101860.56
2022-07-30T11:18:12.945Z,101840.69
2022-07-30T11:20:48.610Z,101851.28
2022-07-30T11:23:45.840Z,101838.41
2022-07-30T11:26:56.618Z,101856.44
2022-07-30T11:29:50.615Z,101838.75
2022-07-30T11:32:33.218Z,101861.88
2022-07-30T11:35:22.899Z,101774.63
2022-07-30T11:38:02.267Z,101849.03
2022-07-30T11:40:34.715Z,101842.88
2022-07-30T11:43:25.626Z,101857.88
2022-07-30T11:46:10.553Z,101833.31
2022-07-30T11:48:41.905Z,101860.84
2022-07-30T11:51:11.214Z,101858.66
2022-07-30T11:53:39.707Z,101854.19
2022-07-30T11:56:10.441Z,101860.50
2022-07-30T11:58:44.774Z,101856.84
2022-07-30T12:01:16.453Z,101859.13
2022-07-30T12:03:47.597Z,101868.22
2022-07-30T12:06:19.719Z,101846.22
2022-07-30T12:08:52.851Z,101858.97
2022-07-30T12:11:24.949Z,101864.31
2022-07-30T12:13:59.740Z,101859.88
2022-07-30T12:16:29.193Z,101861.19
2022-07-30T12:19:02.850Z,101860.47
2022-07-30T12:21:31.559Z,101871.34
2022-07-30T12:24:02.934Z,101843.59
2022-07-30T12:26:35.134Z,101847.69
2022-07-30T12:29:10.052Z,101860.25
2022-07-30T12:31:40.215Z,101860.75
2022-07-30T12:34:21.926Z,101851.19
2022-07-30T12:36:50.626Z,101843.41
2022-07-30T12:39:23.933Z,101841.59
2022-07-30T12:41:56.537Z,101834.13
2022-07-30T12:44:44.710Z,101666.81
2022-07-30T12:47:24.926Z,101799.97
2022-07-30T12:49:54.351Z,101827.56
2022-07-30T12:52:29.360Z,101831.41
2022-07-30T12:55:06.412Z,101838.53
2022-07-30T12:57:57.460Z,101836.19
2022-07-30T13:00:28.266Z,101827.28
2022-07-30T13:02:57.655Z,101833.78
2022-07-30T13:05:49.743Z,101772.47
2022-07-30T13:08:19.069Z,101818.25
2022-07-30T13:10:59.668Z,101825.78
2022-07-30T13:13:31.022Z,101828.50
2022-07-30T13:16:01.717Z,101831.84
2022-07-30T13:18:31.576Z,101817.31
2022-07-30T13:21:00.653Z,101818.25
2022-07-30T13:23:30.002Z,101832.84
2022-07-30T13:25:58.963Z,101808.34
2022-07-30T13:28:29.151Z,101816.94
2022-07-30T13:30:58.780Z,101810.25
2022-07-30T13:33:27.656Z,101810.06
2022-07-30T13:35:56.145Z,101811.91
2022-07-30T13:38:24.609Z,101810.97
2022-07-30T13:40:56.934Z,101809.78
2022-07-30T13:43:29.030Z,101794.41
2022-07-30T13:46:00.425Z,101800.94
2022-07-30T13:48:28.770Z,101803.72
2022-07-30T13:50:57.388Z,101803.16
2022-07-30T13:53:25.780Z,101810.63
2022-07-30T13:55:54.342Z,101808.69
2022-07-30T13:58:22.654Z,101801.69
2022-07-30T14:00:52.739Z,101783.72
2022-07-30T14:03:21.283Z,101809.22
2022-07-30T14:05:49.750Z,101784.88
2022-07-30T14:08:18.160Z,101804.16
2022-07-30T14:10:46.520Z,101801.63
2022-07-30T14:13:20.982Z,101740.84
2022-07-30T14:15:52.761Z,101793.75
2022-07-30T14:18:21.386Z,101704.00
2022-07-30T14:20:52.650Z,101788.44
2022-07-30T14:23:21.626Z,101762.66
2022-07-30T14:25:50.166Z,101789.69
2022-07-30T14:28:18.734Z,101751.53
2022-07-30T14:30:47.135Z,101779.28
2022-07-30T14:33:18.366Z,101764.22
2022-07-30T14:35:46.721Z,101779.06
2022-07-30T14:38:18.703Z,101682.47
2022-07-30T14:40:47.020Z,101767.13
2022-07-30T14:43:17.060Z,101769.97
2022-07-30T14:45:45.685Z,101770.81
2022-07-30T14:48:14.070Z,101769.28
2022-07-30T14:51:03.689Z,101761.28
2022-07-30T14:53:32.508Z,101644.41
2022-07-30T14:56:01.355Z,101739.19
2022-07-30T14:58:30.041Z,101765.78
2022-07-30T15:01:01.148Z,101763.50
2022-07-30T15:03:44.668Z,101775.88
2022-07-30T15:06:15.380Z,101742.59
2022-07-30T15:08:46.018Z,101695.88
2022-07-30T15:11:14.573Z,101764.22
2022-07-30T15:13:49.937Z,101765.94
2022-07-30T15:16:19.807Z,101751.00
2022-07-30T15:18:48.346Z,101776.66
2022-07-30T15:21:18.338Z,101792.03
2022-07-30T15:23:46.794Z,101756.75
2022-07-30T15:26:15.251Z,101773.47
2022-07-30T15:28:43.629Z,101695.13
2022-07-30T15:31:12.020Z,101758.88
2022-07-30T15:33:43.052Z,101756.94
2022-07-30T15:36:11.884Z,101774.84
2022-07-30T15:38:41.938Z,101741.28
2022-07-30T15:41:14.077Z,101767.53
2022-07-30T15:43:42.997Z,101819.53
2022-07-30T15:46:11.378Z,101767.63
2022-07-30T15:48:39.769Z,101775.88
2022-07-30T15:51:08.424Z,101765.78
2022-07-30T15:53:37.166Z,101757.44
2022-07-30T15:56:07.290Z,101767.94
2022-07-30T15:58:43.256Z,101770.75
2022-07-30T16:01:12.816Z,101762.81
2022-07-30T16:03:41.278Z,101757.75
2022-07-30T16:06:09.701Z,101754.97
2022-07-30T16:08:38.089Z,101702.53
2022-07-30T16:11:07.817Z,101653.78
2022-07-30T16:13:39.605Z,101745.31
2022-07-30T16:16:07.938Z,101719.44
2022-07-30T16:18:36.315Z,101719.06
2022-07-30T16:21:04.874Z,101756.38
2022-07-30T16:23:36.389Z,101740.16
2022-07-30T16:26:07.100Z,101721.41
2022-07-30T16:28:35.684Z,101730.19
2022-07-30T16:31:04.077Z,101716.75
2022-07-30T16:33:32.527Z,101718.00
2022-07-30T16:36:00.884Z,101722.19
2022-07-30T16:38:29.334Z,101680.19
2022-07-30T16:40:57.750Z,101712.78
2022-07-30T16:43:27.456Z,101722.41
2022-07-30T16:45:55.770Z,101713.28
2022-07-30T16:48:24.122Z,101710.22
2022-07-30T16:50:52.441Z,101705.41
2022-07-30T16:53:20.870Z,101708.56
2022-07-30T16:55:49.669Z,101692.63
2022-07-30T16:58:18.115Z,101704.88
2022-07-30T17:00:51.264Z,101692.84
2022-07-30T17:03:20.061Z,101702.91
2022-07-30T17:05:49.569Z,101699.69
2022-07-30T17:08:18.155Z,101693.84
2022-07-30T17:10:47.827Z,101691.06
2022-07-30T17:13:16.681Z,101692.88
2022-07-30T17:15:46.703Z,101668.91
2022-07-30T17:18:16.997Z,101691.50
2022-07-30T17:20:45.820Z,101690.66
2022-07-30T17:23:14.219Z,101693.84
2022-07-30T17:25:42.641Z,101712.66
2022-07-30T17:28:11.026Z,101688.97
2022-07-30T17:30:39.502Z,101679.66
2022-07-30T17:33:08.559Z,101688.59
2022-07-30T17:35:38.791Z,101667.00
2022-07-30T17:38:07.436Z,101678.84
2022-07-30T17:40:35.934Z,101670.03
2022-07-30T17:43:05.566Z,101654.44
2022-07-30T17:45:36.823Z,101669.91
2022-07-30T17:48:06.877Z,101663.59
2022-07-30T17:50:37.139Z,101664.44
2022-07-30T17:53:06.801Z,101639.06
2022-07-30T17:55:35.554Z,101645.81
2022-07-30T17:58:04.588Z,101677.22
2022-07-30T18:00:34.906Z,101584.06
2022-07-30T18:03:06.351Z,101550.53
2022-07-30T18:05:37.365Z,101676.59
2022-07-30T18:08:06.203Z,101666.78
2022-07-30T18:10:34.577Z,101644.91
2022-07-30T18:13:26.012Z,101632.41
2022-07-30T18:15:52.679Z,101624.22
2022-07-30T18:18:22.546Z,101665.00
2022-07-30T18:20:52.475Z,101659.44
2022-07-30T18:23:20.996Z,101546.53
2022-07-30T18:25:54.653Z,101681.72
2022-07-30T18:28:23.503Z,101681.53
2022-07-30T18:30:52.248Z,101683.50
2022-07-30T18:33:21.256Z,101676.06
2022-07-30T18:35:51.850Z,101678.44
2022-07-30T18:38:20.685Z,101704.06
2022-07-30T18:40:58.465Z,101682.22
2022-07-30T18:43:27.887Z,101681.97
2022-07-30T18:45:57.472Z,101683.44
2022-07-30T18:48:26.665Z,101673.53
2022-07-30T18:50:56.341Z,101513.97
2022-07-30T18:53:24.829Z,101651.66
2022-07-30T18:55:53.346Z,101671.69
2022-07-30T18:58:21.805Z,101673.44
2022-07-30T19:00:50.749Z,101671.50
2022-07-30T19:03:23.063Z,101675.91
2022-07-30T19:05:51.718Z,101680.44
2022-07-30T19:08:21.572Z,101667.16
2022-07-30T19:10:50.222Z,101602.34
2022-07-30T19:13:18.601Z,101671.84
2022-07-30T19:15:47.065Z,101681.09
2022-07-30T19:18:15.478Z,101676.16
2022-07-30T19:20:45.336Z,101579.69
2022-07-30T19:23:15.187Z,101688.44
2022-07-30T19:25:45.177Z,101673.63
2022-07-30T19:28:15.477Z,101636.09
2022-07-30T19:30:44.030Z,101682.91
2022-07-30T19:33:15.566Z,101681.16
2022-07-30T19:35:44.840Z,101685.09
2022-07-30T19:38:21.639Z,101675.59
2022-07-30T19:40:52.918Z,101680.31
2022-07-30T19:43:23.166Z,101694.66
2022-07-30T19:45:52.756Z,101673.25
2022-07-30T19:48:29.193Z,101689.81
2022-07-30T19:51:01.647Z,101686.63
2022-07-30T19:53:34.326Z,101689.34
2022-07-30T19:56:08.351Z,101699.59
2022-07-30T20:01:40.265Z,101696.44
2022-07-30T20:04:11.105Z,101705.78
2022-07-30T20:06:46.137Z,101685.09
2022-07-30T20:09:17.583Z,101715.91
2022-07-30T20:11:47.526Z,101716.03
2022-07-30T20:14:17.998Z,101710.19
2022-07-30T20:16:47.553Z,101652.75
2022-07-30T20:19:16.644Z,101701.19
2022-07-30T20:21:56.047Z,101710.34
2022-07-30T20:24:26.488Z,101713.03
2022-07-30T20:26:56.374Z,101730.03
2022-07-30T20:29:25.010Z,101727.47
2022-07-30T20:31:53.537Z,101723.31
2022-07-30T20:34:25.727Z,101614.75
2022-07-30T20:36:57.455Z,101706.25
2022-07-30T20:39:26.362Z,101742.66
2022-07-30T20:42:08.512Z,101717.63
2022-07-30T20:44:38.127Z,101728.78
2022-07-30T20:47:08.032Z,101714.69
2022-07-30T20:49:37.062Z,101692.78
2022-07-30T20:52:06.664Z,101707.75
2022-07-30T20:54:35.292Z,101723.09
2022-07-30T20:57:08.819Z,101717.06
2022-07-30T20:59:44.207Z,101730.75
2022-07-30T21:05:01.199Z,101717.16
2022-07-30T21:07:36.523Z,101715.47
2022-07-30T21:10:08.391Z,101714.91
2022-07-30T21:12:44.753Z,101689.91
2022-07-30T21:15:23.394Z,101678.38
2022-07-30T21:17:52.938Z,101726.09
2022-07-30T21:20:27.766Z,101680.47
2022-07-30T21:22:57.154Z,101684.88
2022-07-30T21:25:32.567Z,101711.84
2022-07-30T21:28:03.622Z,101716.38
2022-07-30T21:30:33.630Z,101711.06
2022-07-30T21:33:01.953Z,101713.75
2022-07-30T21:35:32.054Z,101714.59
2022-07-30T21:38:01.097Z,101708.41
2022-07-30T21:40:29.552Z,101705.63
2022-07-30T21:42:57.983Z,101579.63
2022-07-30T21:45:38.038Z,101704.03
2022-07-30T21:48:11.412Z,101712.16
2022-07-30T21:50:40.764Z,101699.84
2022-07-30T21:53:11.598Z,101705.34
2022-07-30T21:55:52.595Z,101700.81
2022-07-30T21:58:25.867Z,101701.47
2022-07-30T22:01:18.026Z,101695.75
2022-07-30T22:04:02.719Z,101687.59
2022-07-30T22:06:33.706Z,101665.13
2022-07-30T22:09:02.707Z,101685.84
2022-07-30T22:11:42.482Z,101653.28
2022-07-30T22:14:11.574Z,101683.88
2022-07-30T22:16:45.963Z,101695.75
2022-07-30T22:19:15.325Z,101686.78
2022-07-30T22:21:46.504Z,101603.03
2022-07-30T22:24:26.296Z,101687.56
2022-07-30T22:27:00.075Z,101682.81
2022-07-30T22:29:33.731Z,101664.59
2022-07-30T22:32:06.412Z,101683.66
2022-07-30T22:34:36.470Z,101697.09
2022-07-30T22:37:09.279Z,101692.16
2022-07-30T22:39:51.726Z,101685.06
2022-07-30T22:42:24.007Z,101687.69
2022-07-30T22:44:54.687Z,101691.00
2022-07-30T22:47:54.172Z,101696.41
2022-07-30T22:50:15.032Z,101691.91
2022-07-30T22:52:56.028Z,101668.78
2022-07-30T22:55:31.354Z,101679.31
2022-07-30T22:58:00.018Z,101670.66
2022-07-30T23:00:28.732Z,101672.28
2022-07-30T23:02:59.381Z,101670.03
2022-07-30T23:05:30.598Z,101664.25
2022-07-30T23:08:04.020Z,101653.22
2022-07-30T23:10:32.666Z,101647.75
2022-07-30T23:12:16.509Z,101691.50
2022-07-30T23:12:26.729Z,101721.69
2022-07-30T23:13:01.493Z,101651.34
2022-07-30T23:15:29.973Z,101630.97
2022-07-30T23:17:59.696Z,101631.56
2022-07-30T23:20:28.777Z,101643.09
2022-07-30T23:22:57.402Z,101647.16
2022-07-30T23:25:38.479Z,101654.88
2022-07-30T23:28:07.378Z,101655.94
2022-07-30T23:30:35.864Z,101658.63
2022-07-30T23:33:05.890Z,101644.56
2022-07-30T23:35:35.082Z,101655.94
2022-07-30T23:38:03.461Z,101667.38
2022-07-30T23:40:31.989Z,101666.41
2022-07-30T23:43:00.323Z,101649.38
2022-07-30T23:45:28.676Z,101691.69
2022-07-30T23:48:02.719Z,101664.66
2022-07-30T23:50:35.649Z,101666.28
2022-07-30T23:53:05.593Z,101658.22
2022-07-30T23:55:33.984Z,101609.97
2022-07-30T23:58:02.347Z,101649.59
